createdAt,value
2019-02-22T00:02:00.604Z,98366.06
2019-02-22T00:04:30.105Z,98362.05
2019-02-22T00:06:59.682Z,98363.13
2019-02-22T00:09:29.190Z,98366.16
2019-02-22T00:11:58.690Z,98355.42
2019-02-22T00:14:28.216Z,98362.48
2019-02-22T00:16:57.757Z,98367.30
2019-02-22T00:19:27.302Z,98368.01
2019-02-22T00:21:56.795Z,98364.22
2019-02-22T00:24:26.304Z,98365.83
2019-02-22T00:26:55.811Z,98356.77
2019-02-22T00:29:25.333Z,98356.56
2019-02-22T00:31:54.861Z,98351.89
2019-02-22T00:34:24.405Z,98347.64
2019-02-22T00:36:54.053Z,98339.28
2019-02-22T00:39:23.521Z,98340.22
2019-02-22T00:41:53.012Z,98340.30
2019-02-22T00:44:22.511Z,98340.38
2019-02-22T00:46:51.997Z,98338.28
2019-02-22T00:49:21.527Z,98335.88
2019-02-22T00:51:50.985Z,98331.64
2019-02-22T00:54:20.515Z,98333.88
2019-02-22T00:56:50.039Z,98332.84
2019-02-22T00:59:19.575Z,98328.64
2019-02-22T01:01:49.071Z,98326.67
2019-02-22T01:04:18.640Z,98340.17
2019-02-22T01:06:48.120Z,98327.16
2019-02-22T01:09:17.622Z,98333.94
2019-02-22T01:11:47.135Z,98334.26
2019-02-22T01:14:16.630Z,98335.72
2019-02-22T01:16:46.481Z,98332.47
2019-02-22T01:19:15.967Z,98333.23
2019-02-22T01:21:45.503Z,98324.77
2019-02-22T01:24:15.031Z,98323.22
2019-02-22T01:26:44.524Z,98324.63
2019-02-22T01:29:14.010Z,98322.55
2019-02-22T01:31:43.499Z,98322.30
2019-02-22T01:34:13.000Z,98321.38
2019-02-22T01:36:42.586Z,98320.09
2019-02-22T01:39:12.056Z,98319.57
2019-02-22T01:41:41.691Z,98314.52
2019-02-22T01:44:20.092Z,98318.08
2019-02-22T01:46:49.601Z,98317.26
2019-02-22T01:49:19.130Z,98324.84
2019-02-22T01:51:48.659Z,98317.02
2019-02-22T01:54:18.116Z,98323.36
2019-02-22T01:56:47.620Z,98319.89
2019-02-22T01:59:17.178Z,98322.82
2019-02-22T02:01:46.688Z,98325.39
2019-02-22T02:04:16.186Z,98334.29
2019-02-22T02:06:46.832Z,98335.82
2019-02-22T02:09:16.405Z,98340.10
2019-02-22T02:11:45.889Z,98333.23
2019-02-22T02:14:15.370Z,98333.22
2019-02-22T02:16:44.866Z,98328.17
2019-02-22T02:19:14.415Z,98339.05
2019-02-22T02:21:44.020Z,98341.97
2019-02-22T02:24:13.561Z,98329.13
2019-02-22T02:26:43.069Z,98333.08
2019-02-22T02:29:12.555Z,98335.09
2019-02-22T02:31:42.079Z,98334.69
2019-02-22T02:34:11.552Z,98337.09
2019-02-22T02:36:41.034Z,98344.01
2019-02-22T02:39:10.595Z,98343.80
2019-02-22T02:41:40.093Z,98345.27
2019-02-22T02:44:09.570Z,98348.50
2019-02-22T02:46:39.109Z,98348.68
2019-02-22T02:49:08.599Z,98350.35
2019-02-22T02:51:38.095Z,98351.16
2019-02-22T02:54:07.585Z,98354.30
2019-02-22T02:56:37.082Z,98356.44
2019-02-22T02:59:06.581Z,98352.09
2019-02-22T03:01:36.060Z,98353.52
2019-02-22T03:04:05.543Z,98359.84
2019-02-22T03:06:49.108Z,98357.47
2019-02-22T03:09:18.586Z,98355.31
2019-02-22T03:11:48.076Z,98356.63
2019-02-22T03:14:17.554Z,98361.86
2019-02-22T03:16:47.121Z,98363.69
2019-02-22T03:19:16.622Z,98369.73
2019-02-22T03:21:46.144Z,98364.66
2019-02-22T03:24:15.620Z,98373.42
2019-02-22T03:26:45.204Z,98371.61
2019-02-22T03:29:14.694Z,98368.48
2019-02-22T03:31:44.199Z,98368.91
2019-02-22T03:34:13.726Z,98367.77
2019-02-22T03:36:43.229Z,98369.37
2019-02-22T03:39:12.700Z,98366.55
2019-02-22T03:41:42.170Z,98362.41
2019-02-22T03:44:11.643Z,98373.02
2019-02-22T03:46:41.128Z,98372.76
2019-02-22T03:49:10.620Z,98375.84
2019-02-22T03:51:40.102Z,98384.45
2019-02-22T03:54:09.588Z,98387.66
2019-02-22T03:56:39.105Z,98395.69
2019-02-22T03:59:08.599Z,98399.16
2019-02-22T04:01:38.161Z,98395.95
2019-02-22T04:04:07.724Z,98404.16
2019-02-22T04:06:37.216Z,98406.28
2019-02-22T04:09:10.973Z,98408.94
2019-02-22T04:11:45.540Z,98405.58
2019-02-22T04:14:11.671Z,98393.41
2019-02-22T04:16:41.205Z,98386.21
2019-02-22T04:19:10.675Z,98385.80
2019-02-22T04:21:40.182Z,98389.38
2019-02-22T04:24:09.940Z,98392.54
2019-02-22T04:26:39.432Z,98399.69
2019-02-22T04:29:08.900Z,98407.00
2019-02-22T04:31:38.400Z,98407.74
2019-02-22T04:34:07.898Z,98413.38
2019-02-22T04:36:37.397Z,98411.59
2019-02-22T04:39:07.106Z,98405.16
2019-02-22T04:41:36.649Z,98400.48
2019-02-22T04:44:06.157Z,98411.05
2019-02-22T04:46:35.620Z,98406.86
2019-02-22T04:49:05.423Z,98416.55
2019-02-22T04:51:34.960Z,98413.41
2019-02-22T04:54:04.514Z,98415.75
2019-02-22T04:56:34.075Z,98410.70
2019-02-22T04:59:03.574Z,98405.34
2019-02-22T05:01:33.133Z,98408.91
2019-02-22T05:04:02.691Z,98400.34
2019-02-22T05:06:32.189Z,98408.53
2019-02-22T05:09:01.750Z,98409.00
2019-02-22T05:11:31.243Z,98409.94
2019-02-22T05:14:00.725Z,98413.22
2019-02-22T05:16:30.197Z,98410.48
2019-02-22T05:18:59.964Z,98410.31
2019-02-22T05:21:29.485Z,98415.59
2019-02-22T05:23:58.978Z,98415.53
2019-02-22T05:26:28.519Z,98412.73
2019-02-22T05:28:57.979Z,98412.77
2019-02-22T05:31:27.477Z,98417.58
2019-02-22T05:33:57.214Z,98415.13
2019-02-22T05:36:26.697Z,98419.39
2019-02-22T05:38:56.204Z,98425.75
2019-02-22T05:41:25.678Z,98426.52
2019-02-22T05:43:55.158Z,98427.56
2019-02-22T05:46:24.740Z,98431.84
2019-02-22T05:48:54.215Z,98431.93
2019-02-22T05:51:23.707Z,98434.62
2019-02-22T05:53:53.190Z,98437.77
2019-02-22T05:56:22.785Z,98442.64
2019-02-22T05:58:52.300Z,98439.81
2019-02-22T06:01:21.881Z,98444.39
2019-02-22T06:03:51.459Z,98444.52
2019-02-22T06:06:20.938Z,98448.43
2019-02-22T06:08:50.448Z,98449.61
2019-02-22T06:11:19.957Z,98451.69
2019-02-22T06:13:49.537Z,98453.70
2019-02-22T06:16:19.024Z,98459.06
2019-02-22T06:18:48.510Z,98466.69
2019-02-22T06:21:18.025Z,98464.97
2019-02-22T06:23:47.495Z,98474.95
2019-02-22T06:26:17.008Z,98470.69
2019-02-22T06:28:46.490Z,98481.84
2019-02-22T06:31:15.957Z,98483.91
2019-02-22T06:33:45.464Z,98485.75
2019-02-22T06:36:14.968Z,98488.84
2019-02-22T06:38:46.549Z,98492.41
2019-02-22T06:41:15.684Z,98496.30
2019-02-22T06:43:45.176Z,98492.03
2019-02-22T06:46:14.719Z,98493.51
2019-02-22T06:48:44.218Z,98497.39
2019-02-22T06:51:13.695Z,98499.20
2019-02-22T06:53:43.221Z,98506.20
2019-02-22T06:56:12.742Z,98503.02
2019-02-22T06:58:42.226Z,98498.34
2019-02-22T07:01:11.808Z,98506.72
2019-02-22T07:03:41.307Z,98510.24
2019-02-22T07:06:10.782Z,98516.78
2019-02-22T07:08:40.457Z,98515.79
2019-02-22T07:11:17.765Z,98530.55
2019-02-22T07:13:47.550Z,98532.41
2019-02-22T07:16:17.015Z,98536.97
2019-02-22T07:18:46.499Z,98549.49
2019-02-22T07:21:16.101Z,98556.88
2019-02-22T07:23:45.813Z,98553.02
2019-02-22T07:26:15.504Z,98563.52
2019-02-22T07:28:45.118Z,98566.39
2019-02-22T07:31:14.599Z,98566.85
2019-02-22T07:33:44.467Z,98574.75
2019-02-22T07:36:14.139Z,98572.12
2019-02-22T07:38:43.622Z,98577.07
2019-02-22T07:41:13.164Z,98574.67
2019-02-22T07:43:42.714Z,98579.39
2019-02-22T07:46:12.306Z,98571.27
2019-02-22T07:48:41.785Z,98571.72
2019-02-22T07:51:11.379Z,98576.53
2019-02-22T07:53:40.862Z,98574.16
2019-02-22T07:56:10.778Z,98582.34
2019-02-22T07:58:40.259Z,98590.39
2019-02-22T08:01:09.759Z,98595.23
2019-02-22T08:03:39.341Z,98589.30
2019-02-22T08:06:08.863Z,98601.58
2019-02-22T08:08:38.333Z,98603.83
2019-02-22T08:11:07.856Z,98600.19
2019-02-22T08:13:37.538Z,98609.30
2019-02-22T08:16:07.056Z,98605.66
2019-02-22T08:18:36.541Z,98609.55
2019-02-22T08:21:06.139Z,98618.25
2019-02-22T08:23:35.693Z,98619.56
2019-02-22T08:26:05.189Z,98615.56
2019-02-22T08:28:34.773Z,98620.76
2019-02-22T08:31:04.332Z,98626.81
2019-02-22T08:33:33.905Z,98620.83
2019-02-22T08:36:03.540Z,98628.47
2019-02-22T08:38:33.047Z,98630.12
2019-02-22T08:41:02.531Z,98633.01
2019-02-22T08:43:32.074Z,98631.73
2019-02-22T08:46:01.595Z,98640.38
2019-02-22T08:48:31.116Z,98638.31
2019-02-22T08:51:00.599Z,98637.28
2019-02-22T08:53:30.132Z,98620.41
2019-02-22T08:55:59.627Z,98635.20
2019-02-22T08:58:29.220Z,98634.53
2019-02-22T09:00:58.818Z,98638.38
2019-02-22T09:03:28.359Z,98639.98
2019-02-22T09:05:57.870Z,98645.73
2019-02-22T09:08:27.490Z,98644.91
2019-02-22T09:11:00.504Z,98636.64
2019-02-22T09:13:28.199Z,98639.77
2019-02-22T09:15:57.690Z,98644.33
2019-02-22T09:18:27.162Z,98644.05
2019-02-22T09:20:56.719Z,98647.81
2019-02-22T09:23:26.238Z,98644.54
2019-02-22T09:25:55.731Z,98654.22
2019-02-22T09:28:25.344Z,98657.44
2019-02-22T09:30:54.851Z,98654.02
2019-02-22T09:33:24.337Z,98656.77
2019-02-22T09:35:53.883Z,98656.31
2019-02-22T09:38:23.416Z,98663.35
2019-02-22T09:40:53.084Z,98662.41
2019-02-22T09:43:22.560Z,98669.09
2019-02-22T09:45:52.140Z,98675.76
2019-02-22T09:48:21.643Z,98680.77
2019-02-22T09:51:42.815Z,98683.30
2019-02-22T09:54:52.246Z,98682.73
2019-02-22T09:57:21.169Z,98694.97
2019-02-22T09:59:50.688Z,98696.08
2019-02-22T10:02:20.267Z,98705.01
2019-02-22T10:04:55.084Z,98707.00
2019-02-22T10:07:21.290Z,98700.61
2019-02-22T10:09:50.775Z,98711.53
2019-02-22T10:12:20.359Z,98708.16
2019-02-22T10:14:49.795Z,98713.42
2019-02-22T10:17:19.244Z,98711.66
2019-02-22T10:19:48.780Z,98720.77
2019-02-22T10:22:18.264Z,98724.16
2019-02-22T10:24:48.091Z,98725.09
2019-02-22T10:27:17.586Z,98728.84
2019-02-22T10:29:47.279Z,98729.22
2019-02-22T10:32:16.755Z,98720.67
2019-02-22T10:34:46.279Z,98736.77
2019-02-22T10:37:16.035Z,98734.16
2019-02-22T10:39:45.539Z,98735.48
2019-02-22T10:42:15.090Z,98731.08
2019-02-22T10:44:44.596Z,98743.69
2019-02-22T10:47:14.103Z,98739.28
2019-02-22T10:49:43.644Z,98739.75
2019-02-22T10:52:13.129Z,98735.42
2019-02-22T10:54:42.818Z,98733.19
2019-02-22T10:57:12.307Z,98740.91
2019-02-22T10:59:41.885Z,98740.15
2019-02-22T11:02:11.403Z,98742.78
2019-02-22T11:04:40.966Z,98740.44
2019-02-22T11:07:10.615Z,98749.75
2019-02-22T11:09:40.090Z,98744.95
2019-02-22T11:12:09.633Z,98747.20
2019-02-22T11:14:39.168Z,98749.84
2019-02-22T11:17:08.794Z,98751.73
2019-02-22T11:19:38.272Z,98749.09
2019-02-22T11:22:07.825Z,98765.11
2019-02-22T11:24:37.304Z,98764.08
2019-02-22T11:27:06.830Z,98764.94
2019-02-22T11:29:36.300Z,98753.15
2019-02-22T11:32:05.868Z,98752.88
2019-02-22T11:34:35.376Z,98755.42
2019-02-22T11:37:05.363Z,98756.55
2019-02-22T11:39:34.847Z,98752.70
2019-02-22T11:42:04.504Z,98760.70
2019-02-22T11:44:40.219Z,98754.39
2019-02-22T11:47:05.162Z,98756.19
2019-02-22T11:49:34.644Z,98752.07
2019-02-22T11:52:04.285Z,98752.55
2019-02-22T11:54:33.923Z,98751.98
2019-02-22T11:57:04.064Z,98755.47
2019-02-22T11:59:33.672Z,98755.94
2019-02-22T12:02:03.376Z,98760.36
2019-02-22T12:04:32.835Z,98760.83
2019-02-22T12:07:02.397Z,98763.28
2019-02-22T12:09:31.983Z,98759.80
2019-02-22T12:12:01.532Z,98767.80
2019-02-22T12:14:31.003Z,98769.97
2019-02-22T12:17:00.487Z,98769.03
2019-02-22T12:19:29.981Z,98773.92
2019-02-22T12:21:59.493Z,98771.85
2019-02-22T12:24:28.993Z,98768.37
2019-02-22T12:26:58.568Z,98768.80
2019-02-22T12:29:28.477Z,98767.95
2019-02-22T12:31:57.956Z,98768.14
2019-02-22T12:34:27.495Z,98777.84
2019-02-22T12:36:57.049Z,98778.31
2019-02-22T12:39:26.551Z,98780.75
2019-02-22T12:41:56.175Z,98780.75
2019-02-22T12:44:25.664Z,98785.18
2019-02-22T12:46:55.212Z,98789.61
2019-02-22T12:49:24.755Z,98786.12
2019-02-22T12:51:54.307Z,98785.27
2019-02-22T12:54:23.983Z,98789.70
2019-02-22T12:56:57.414Z,98793.66
2019-02-22T12:59:24.644Z,98786.69
2019-02-22T13:01:54.299Z,98796.38
2019-02-22T13:04:23.794Z,98794.50
2019-02-22T13:06:53.364Z,98792.25
2019-02-22T13:09:23.010Z,98801.56
2019-02-22T13:11:52.496Z,98799.40
2019-02-22T13:14:22.033Z,98808.45
2019-02-22T13:16:51.604Z,98809.48
2019-02-22T13:22:02.861Z,98806.66
2019-02-22T13:24:32.343Z,98814.19
2019-02-22T13:27:01.986Z,98820.88
2019-02-22T13:29:31.451Z,98821.81
2019-02-22T13:32:00.913Z,98824.06
2019-02-22T13:34:30.399Z,98829.34
2019-02-22T13:36:59.875Z,98826.80
2019-02-22T13:39:29.342Z,98828.58
2019-02-22T13:41:58.938Z,98835.27
2019-02-22T13:44:28.487Z,98836.20
2019-02-22T13:46:58.104Z,98834.51
2019-02-22T13:49:27.840Z,98835.91
2019-02-22T13:51:57.323Z,98836.77
2019-02-22T13:54:26.844Z,98841.56
2019-02-22T13:56:56.322Z,98840.81
2019-02-22T13:59:25.879Z,98848.72
2019-02-22T14:01:55.834Z,98848.72
2019-02-22T14:04:25.303Z,98842.97
2019-02-22T14:06:54.784Z,98847.48
2019-02-22T14:09:24.270Z,98849.09
2019-02-22T14:11:53.823Z,98855.22
2019-02-22T14:14:24.220Z,98848.72
2019-02-22T14:16:53.740Z,98853.90
2019-02-22T14:19:23.244Z,98865.41
2019-02-22T14:21:52.828Z,98859.58
2019-02-22T14:24:22.341Z,98859.95
2019-02-22T14:26:51.861Z,98860.42
2019-02-22T14:29:22.944Z,98858.25
2019-02-22T14:31:52.442Z,98860.04
2019-02-22T14:34:22.104Z,98868.33
2019-02-22T14:36:51.662Z,98862.03
2019-02-22T14:39:21.180Z,98873.33
2019-02-22T14:41:50.668Z,98860.53
2019-02-22T14:44:20.195Z,98868.34
2019-02-22T14:46:49.677Z,98869.90
2019-02-22T14:49:19.199Z,98864.64
2019-02-22T14:51:48.688Z,98864.18
2019-02-22T14:54:18.175Z,98864.38
2019-02-22T14:56:47.640Z,98869.19
2019-02-22T14:59:17.152Z,98863.45
2019-02-22T15:01:46.804Z,98865.34
2019-02-22T15:04:17.245Z,98872.37
2019-02-22T15:06:46.727Z,98872.95
2019-02-22T15:09:16.227Z,98867.48
2019-02-22T15:11:45.711Z,98884.83
2019-02-22T15:14:17.863Z,98886.42
2019-02-22T15:17:08.169Z,98892.93
2019-02-22T15:19:37.733Z,98896.80
2019-02-22T15:22:07.304Z,98898.02
2019-02-22T15:24:36.766Z,98897.08
2019-02-22T15:27:06.281Z,98897.84
2019-02-22T15:29:35.749Z,98898.41
2019-02-22T15:32:05.319Z,98900.00
2019-02-22T15:34:34.872Z,98898.88
2019-02-22T15:37:04.413Z,98913.67
2019-02-22T15:39:33.877Z,98907.83
2019-02-22T15:42:03.477Z,98910.94
2019-02-22T15:45:28.825Z,98915.84
2019-02-22T15:47:59.238Z,98916.31
2019-02-22T15:50:28.753Z,98920.75
2019-02-22T15:52:58.251Z,98917.64
2019-02-22T15:55:27.778Z,98915.09
2019-02-22T15:57:57.358Z,98914.15
2019-02-22T16:00:28.070Z,98915.94
2019-02-22T16:02:57.613Z,98919.23
2019-02-22T16:05:29.706Z,98925.75
2019-02-22T16:07:59.256Z,98930.27
2019-02-22T16:10:28.763Z,98926.87
2019-02-22T16:12:58.370Z,98930.09
2019-02-22T16:15:27.977Z,98929.23
2019-02-22T16:17:57.551Z,98939.52
2019-02-22T16:20:27.127Z,98944.04
2019-02-22T16:22:56.575Z,98935.45
2019-02-22T16:25:26.070Z,98937.91
2019-02-22T16:27:55.564Z,98941.77
2019-02-22T16:30:27.610Z,98940.05
2019-02-22T16:32:57.087Z,98942.34
2019-02-22T16:35:26.656Z,98946.75
2019-02-22T16:37:56.131Z,98952.77
2019-02-22T16:40:25.636Z,98952.57
2019-02-22T16:42:55.422Z,98957.28
2019-02-22T16:45:24.885Z,98957.73
2019-02-22T16:47:54.447Z,98951.59
2019-02-22T16:50:23.911Z,98964.28
2019-02-22T16:52:53.386Z,98955.46
2019-02-22T16:55:22.951Z,98962.20
2019-02-22T16:57:52.524Z,98962.81
2019-02-22T17:00:22.059Z,98972.03
2019-02-22T17:02:51.659Z,98971.23
2019-02-22T17:05:21.143Z,98973.27
2019-02-22T17:07:50.695Z,98972.37
2019-02-22T17:10:20.252Z,98976.41
2019-02-22T17:12:49.819Z,98969.23
2019-02-22T17:15:19.300Z,98979.86
2019-02-22T17:17:48.876Z,98986.31
2019-02-22T17:20:18.369Z,98984.53
2019-02-22T17:22:47.892Z,98995.48
2019-02-22T17:25:17.419Z,98999.95
2019-02-22T17:27:47.006Z,99004.20
2019-02-22T17:30:16.493Z,99003.36
2019-02-22T17:32:45.968Z,99012.42
2019-02-22T17:35:15.464Z,99009.95
2019-02-22T17:37:45.089Z,99019.13
2019-02-22T17:40:17.551Z,99019.95
2019-02-22T17:42:47.088Z,99031.67
2019-02-22T17:45:16.611Z,99028.95
2019-02-22T17:47:46.112Z,99028.84
2019-02-22T17:50:15.742Z,99022.80
2019-02-22T17:52:45.240Z,99029.16
2019-02-22T17:55:14.801Z,99031.80
2019-02-22T17:57:44.326Z,99039.77
2019-02-22T18:00:16.273Z,99046.48
2019-02-22T18:02:45.871Z,99055.94
2019-02-22T18:05:15.495Z,99050.44
2019-02-22T18:07:45.083Z,99052.53
2019-02-22T18:10:14.620Z,99058.39
2019-02-22T18:12:44.086Z,99065.98
2019-02-22T18:15:13.655Z,99073.25
2019-02-22T18:17:43.497Z,99079.75
2019-02-22T18:20:13.150Z,99073.70
2019-02-22T18:22:42.633Z,99084.38
2019-02-22T18:25:12.185Z,99086.94
2019-02-22T18:27:41.685Z,99082.91
2019-02-22T18:30:12.029Z,99090.33
2019-02-22T18:32:41.514Z,99089.26
2019-02-22T18:35:11.071Z,99084.45
2019-02-22T18:37:40.588Z,99087.64
2019-02-22T18:40:11.782Z,99090.81
2019-02-22T18:42:41.426Z,99090.41
2019-02-22T18:45:11.005Z,99093.11
2019-02-22T18:47:40.581Z,99091.65
2019-02-22T18:50:10.164Z,99088.87
2019-02-22T18:52:39.660Z,99098.15
2019-02-22T18:55:09.400Z,99099.36
2019-02-22T18:57:38.959Z,99105.04
2019-02-22T19:00:10.501Z,99102.18
2019-02-22T19:02:39.969Z,99108.69
2019-02-22T19:05:09.673Z,99112.55
2019-02-22T19:07:39.145Z,99115.40
2019-02-22T19:10:09.934Z,99118.48
2019-02-22T19:12:39.390Z,99121.64
2019-02-22T19:15:10.552Z,99120.78
2019-02-22T19:17:40.106Z,99125.84
2019-02-22T19:20:11.493Z,99122.72
2019-02-22T19:22:40.987Z,99130.22
2019-02-22T19:25:10.623Z,99134.72
2019-02-22T19:27:40.177Z,99138.59
2019-02-22T19:30:14.897Z,99141.46
2019-02-22T19:32:44.453Z,99136.94
2019-02-22T19:35:14.014Z,99144.40
2019-02-22T19:37:43.480Z,99147.35
2019-02-22T19:40:15.114Z,99151.83
2019-02-22T19:42:44.574Z,99150.28
2019-02-22T19:45:14.138Z,99158.69
2019-02-22T19:47:43.613Z,99151.80
2019-02-22T19:50:13.303Z,99154.69
2019-02-22T19:52:42.876Z,99149.13
2019-02-22T19:55:13.356Z,99158.48
2019-02-22T19:57:42.922Z,99155.33
2019-02-22T20:00:14.502Z,99147.98
2019-02-22T20:02:43.988Z,99158.48
2019-02-22T20:05:13.611Z,99162.59
2019-02-22T20:07:43.246Z,99173.47
2019-02-22T20:10:18.024Z,99179.12
2019-02-22T20:12:44.944Z,99183.45
2019-02-22T20:15:15.150Z,99184.86
2019-02-22T20:17:53.146Z,99193.64
2019-02-22T20:20:16.278Z,99197.98
2019-02-22T20:22:45.831Z,99209.17
2019-02-22T20:25:15.398Z,99206.50
2019-02-22T20:27:44.874Z,99209.45
2019-02-22T20:30:15.144Z,99209.62
2019-02-22T20:32:44.725Z,99213.56
2019-02-22T20:35:16.177Z,99222.45
2019-02-22T20:37:52.580Z,99226.22
2019-02-22T20:40:16.941Z,99235.27
2019-02-22T20:42:46.427Z,99232.59
2019-02-22T20:45:15.915Z,99238.67
2019-02-22T20:47:45.402Z,99234.83
2019-02-22T20:50:14.965Z,99232.27
2019-02-22T20:52:44.518Z,99238.58
2019-02-22T20:55:14.146Z,99242.88
2019-02-22T20:57:43.662Z,99236.24
2019-02-22T21:00:15.343Z,99232.63
2019-02-22T21:02:44.943Z,99232.98
2019-02-22T21:05:14.496Z,99238.89
2019-02-22T21:07:43.998Z,99237.44
2019-02-22T21:10:15.022Z,99240.59
2019-02-22T21:12:44.520Z,99249.00
2019-02-22T21:15:14.068Z,99243.34
2019-02-22T21:17:43.547Z,99249.39
2019-02-22T21:20:13.407Z,99249.51
2019-02-22T21:22:42.986Z,99251.05
2019-02-22T21:25:12.513Z,99253.78
2019-02-22T21:27:42.060Z,99251.81
2019-02-22T21:30:13.054Z,99252.88
2019-02-22T21:32:42.618Z,99262.00
2019-02-22T21:35:12.180Z,99270.51
2019-02-22T21:37:41.727Z,99273.42
2019-02-22T21:40:11.288Z,99274.30
2019-02-22T21:42:40.798Z,99282.53
2019-02-22T21:45:10.807Z,99290.16
2019-02-22T21:47:40.383Z,99291.67
2019-02-22T21:50:11.728Z,99292.59
2019-02-22T21:52:41.312Z,99299.74
2019-02-22T21:55:11.111Z,99297.26
2019-02-22T21:57:40.789Z,99294.62
2019-02-22T22:00:13.432Z,99298.66
2019-02-22T22:02:42.972Z,99298.73
2019-02-22T22:05:12.451Z,99297.22
2019-02-22T22:07:41.907Z,99303.59
2019-02-22T22:10:11.449Z,99301.09
2019-02-22T22:12:41.013Z,99300.05
2019-02-22T22:15:10.980Z,99301.36
2019-02-22T22:17:40.623Z,99301.42
2019-02-22T22:20:10.290Z,99287.10
2019-02-22T22:22:39.986Z,99292.36
2019-02-22T22:25:09.988Z,99287.61
2019-02-22T22:27:39.578Z,99296.41
2019-02-22T22:30:10.224Z,99310.31
2019-02-22T22:32:39.744Z,99306.95
2019-02-22T22:35:10.055Z,99307.33
2019-02-22T22:37:39.536Z,99311.44
2019-02-22T22:40:09.775Z,99312.43
2019-02-22T22:42:39.405Z,99314.19
2019-02-22T22:45:09.803Z,99329.44
2019-02-22T22:47:39.292Z,99332.57
2019-02-22T22:50:10.518Z,99337.03
2019-02-22T22:52:40.082Z,99342.16
2019-02-22T22:55:09.935Z,99350.23
2019-02-22T22:57:39.697Z,99336.30
2019-02-22T23:00:35.849Z,99335.78
2019-02-22T23:03:05.367Z,99336.97
2019-02-22T23:05:34.918Z,99330.07
2019-02-22T23:08:04.577Z,99336.90
2019-02-22T23:10:34.065Z,99336.64
2019-02-22T23:13:03.539Z,99321.20
2019-02-22T23:15:33.039Z,99319.16
2019-02-22T23:18:02.523Z,99324.09
2019-02-22T23:20:32.099Z,99320.41
2019-02-22T23:23:01.721Z,99326.72
2019-02-22T23:25:31.271Z,99335.72
2019-02-22T23:28:00.750Z,99336.97
2019-02-22T23:30:30.245Z,99336.49
2019-02-22T23:32:59.740Z,99335.13
2019-02-22T23:35:29.337Z,99331.73
2019-02-22T23:37:58.791Z,99335.64
2019-02-22T23:40:28.275Z,99337.30
2019-02-22T23:42:57.845Z,99341.81
2019-02-22T23:45:27.355Z,99341.30
2019-02-22T23:47:56.834Z,99347.16
2019-02-22T23:50:26.322Z,99350.81
2019-02-22T23:52:55.897Z,99353.96
2019-02-22T23:55:25.374Z,99352.34
2019-02-22T23:57:54.853Z,99350.61
